Nashua, MT (59248)

12:03 PM MDT on July 31, 2014 (GMT -0600)
nashua (KMTNASHU2) Elev 2156 ft | 48.11 °N, 106.45 °W | Change Station

Current weather conditions updated 3 minutes ago

Clear
Clear
91.4 °F
Feels Like 88 °F
N
7.8
Wind Variable Wind from SSW
Gusts 16.5 mph

Today is forecast to be nearly the same temperature as yesterday.

Today
High -- | Low -- °F
--% Chance of Precip.
Yesterday
High -- | Low -- °F
Precip. -- in
5:39 AM 8:42 PM
Waxing Crescent, 20% visible
Pressure 29.96 in
Visibility 10.0 miles
Clouds Clear
Heat Index 88 °F
Dew Point 47 °F
Humidity 22%
Rainfall 0.00 in
Snow Depth Not available.
UV 9 out of 12
Pollen 7.40 out of 12
Air Quality Not available.
Flu Activity Not available.
METAR KGGW 311753Z AUTO 22007KT 180V240 10SM CLR 33/07 A3000 RMK AO2 SLP144 T03280067 10328 20183 58012

More Conditions Fewer Conditions

Pressure 29.96 in
Visibility 10.0 miles
Clouds Clear
Heat Index 88 °F
Dew Point 47 °F
Humidity 22%
Rainfall 0.00 in
Snow Depth Not available.
UV 9 out of 12
Pollen 7.40 out of 12
Air Quality Not available.
Flu Activity Not available.
METAR KGGW 311753Z AUTO 22007KT 180V240 10SM CLR 33/07 A3000 RMK AO2 SLP144 T03280067 10328 20183 58012

More Conditions Fewer Conditions

10-Day Weather Forecast

Almanac

Astronomy

Jul. 31, 2014 Rise Set
Actual Time 5:39 AM MDT 8:42 PM MDT
Civil Twilight 5:03 AM MDT 9:19 PM MDT
Nautical Twilight 4:15 AM MDT 10:06 PM MDT
Astronomical Twilight 3:16 AM MDT 11:04 PM MDT
Moon 10:34 AM MDT 10:30 PM MDT
Length of Visible Light 16h 16m
Length of Day
15h 02m
Tomorrow will be 2m 43s shorter.
Waxing Crescent, 20% of the Moon is Illuminated
Today
Waxing Crescent
Aug 3
First Quarter
Aug 10
Full
Aug 17
Last Quarter
Aug 25
New

Today's Extremes

State Highs State Lows

Community

WunderPhotos

Upload Photos

1,739,397 photos uploaded!

Nearby

Snow Depth

Station Depth Elevation
Crystal Lake 0 in 6050 ft
Stringer Creek 0 in 6550 ft
Porcupine 1 in 6500 ft
Cole Creek 0 in 7850 ft
White Mill 1 in 8700 ft

Earthquake Activity

City Distance Mag. Time & Date
No recent earthquake activity has been reported nearby.
Minimum magnitude displayed is 2.5.

Coastal Water Temperatures

Place Temperature
No Stations Reporting

Nearby Weather Stations

Station Location Temp. Heat Index Dew Point Humidity Wind Precip. Elev Updated Type
nashua, Nashua, MT 91.4 °F 88 °F 47 °F 22% SSW  at  7.8 mph 0.00 in / hr 2156 ft 12:00 PM MDT Normal
Sturgeon Bay, Fort Peck, MT 88.2 °F 85 °F 45 °F 22% SSW  at  4.5 mph 0.00 in / hr 2287 ft 12:00 PM MDT Normal
City Center - AA7AS, Glasgow, MT 90.3 °F 88 °F 53 °F 28% East  at  5.1 mph - / hr 2090 ft 10:57 AM MDT Normal

Show More Stations Show Fewer Stations